createdAt,value
2018-12-21T00:03:13.252Z,101136.74
2018-12-21T00:06:45.517Z,101138.34
2018-12-21T00:10:16.568Z,101134.81
2018-12-21T00:13:47.606Z,101130.16
2018-12-21T00:17:20.981Z,101135.12
2018-12-21T00:20:56.295Z,101129.21
2018-12-21T00:24:25.422Z,101133.87
2018-12-21T00:27:58.955Z,101131.35
2018-12-21T00:31:32.054Z,101128.67
2018-12-21T00:35:03.437Z,101125.79
2018-12-21T00:38:36.167Z,101123.25
2018-12-21T00:42:07.769Z,101128.52
2018-12-21T00:45:41.808Z,101126.9
2018-12-21T00:49:13.129Z,101118.92
2018-12-21T00:52:44.460Z,101115.25
2018-12-21T00:56:18.998Z,101114.74
2018-12-21T00:59:50.427Z,101113.94
2018-12-21T01:03:24.138Z,101116.34
2018-12-21T01:06:56.105Z,101116.82
2018-12-21T01:10:29.681Z,101117.13
2018-12-21T01:14:04.287Z,101116.49
2018-12-21T01:17:37.458Z,101122.56
2018-12-21T01:21:07.771Z,101118.85
2018-12-21T01:24:44.670Z,101116.26
2018-12-21T01:28:17.455Z,101113.22
2018-12-21T01:31:49.352Z,101116.43
2018-12-21T01:35:20.089Z,101118.17
2018-12-21T01:38:47.982Z,101116.74
2018-12-21T01:42:15.866Z,101106.18
2018-12-21T01:45:43.787Z,101098.67
2018-12-21T01:49:11.672Z,101102.98
2018-12-21T01:52:39.723Z,101094.85
2018-12-21T01:56:07.586Z,101091.03
2018-12-21T01:59:35.474Z,101092.48
2018-12-21T02:03:03.374Z,101089.79
2018-12-21T02:06:31.245Z,101091.71
2018-12-21T02:09:59.126Z,101086.43
2018-12-21T02:13:27.006Z,101083.25
2018-12-21T02:16:54.877Z,101085.93
2018-12-21T02:20:22.763Z,101078.12
2018-12-21T02:23:50.646Z,101074.76
2018-12-21T02:27:18.517Z,101075.71
2018-12-21T02:30:46.396Z,101068.35
2018-12-21T02:34:14.280Z,101061.46
2018-12-21T02:37:42.148Z,101059.22
2018-12-21T02:41:10.030Z,101061.13
2018-12-21T02:44:38.905Z,101058.91
2018-12-21T02:48:06.777Z,101063.39
2018-12-21T02:51:34.653Z,101061.3
2018-12-21T02:55:02.540Z,101061.64
2018-12-21T02:58:31.425Z,101058.14
2018-12-21T03:01:59.291Z,101054
2018-12-21T03:05:27.171Z,101054.82
2018-12-21T03:08:55.059Z,101049.06
2018-12-21T03:12:22.927Z,101046.34
2018-12-21T03:15:50.810Z,101046.01
2018-12-21T03:19:18.700Z,101037.85
2018-12-21T03:22:46.559Z,101040.41
2018-12-21T03:26:14.437Z,101033.71
2018-12-21T03:29:42.324Z,101033.37
2018-12-21T03:33:11.188Z,101032.42
2018-12-21T03:36:39.170Z,101021.37
2018-12-21T03:40:07.056Z,101017.85
2018-12-21T03:43:34.918Z,101013.21
2018-12-21T03:47:02.806Z,101005.5
2018-12-21T03:50:30.693Z,101004.65
2018-12-21T03:53:58.557Z,101001.94
2018-12-21T03:57:26.437Z,100990.57
2018-12-21T04:00:55.317Z,100994.56
2018-12-21T04:04:23.178Z,100997.12
2018-12-21T04:07:51.058Z,100990.87
2018-12-21T04:11:18.940Z,100983.18
2018-12-21T04:14:46.823Z,100983.37
2018-12-21T04:18:14.693Z,100979.92
2018-12-21T04:21:42.583Z,100974.01
2018-12-21T04:25:10.464Z,100975.46
2018-12-21T04:28:39.321Z,100978.68
2018-12-21T04:32:07.213Z,100972.96
2018-12-21T04:35:35.111Z,100976.85
2018-12-21T04:39:03.114Z,100975.75
2018-12-21T04:42:30.996Z,100970.01
2018-12-21T04:45:58.877Z,100967.14
2018-12-21T04:49:26.757Z,100964.07
2018-12-21T04:52:54.630Z,100961.08
2018-12-21T04:56:22.508Z,100961.22
2018-12-21T04:59:50.391Z,100957.21
2018-12-21T05:03:18.262Z,100958.18
2018-12-21T05:06:46.140Z,100955.6
2018-12-21T05:10:14.023Z,100961.98
2018-12-21T05:13:41.886Z,100961.64
2018-12-21T05:17:09.766Z,100955.41
2018-12-21T05:20:37.649Z,100956.96
2018-12-21T05:24:05.511Z,100952.92
2018-12-21T05:27:33.389Z,100944.6
2018-12-21T05:31:01.275Z,100937.35
2018-12-21T05:34:29.142Z,100938.41
2018-12-21T05:37:58.016Z,100928.62
2018-12-21T05:41:25.897Z,100923.81
2018-12-21T05:44:53.777Z,100918.66
2018-12-21T05:48:22.646Z,100918.45
2018-12-21T05:51:50.532Z,100917.1
2018-12-21T05:55:18.396Z,100912.14
2018-12-21T05:58:46.278Z,100908.6
2018-12-21T06:02:14.157Z,100902.5
2018-12-21T06:05:43.269Z,100896.07
2018-12-21T06:09:11.146Z,100894.26
2018-12-21T06:12:40.028Z,100890.57
2018-12-21T06:16:07.909Z,100895.35
2018-12-21T06:19:35.874Z,100892.26
2018-12-21T06:23:09.517Z,100886.34
2018-12-21T06:26:35.608Z,100886.15
2018-12-21T06:30:04.657Z,100883.09
2018-12-21T06:33:32.519Z,100877.14
2018-12-21T06:37:01.394Z,100866.25
2018-12-21T06:40:30.275Z,100861.45
2018-12-21T06:43:59.138Z,100856.46
2018-12-21T06:47:27.025Z,100850.15
2018-12-21T06:50:55.898Z,100843.27
2018-12-21T06:54:23.773Z,100846.05
2018-12-21T06:57:51.669Z,100844.77
2018-12-21T07:01:20.540Z,100847.35
2018-12-21T07:04:48.404Z,100848.32
2018-12-21T07:08:16.282Z,100839.85
2018-12-21T07:11:44.193Z,100838.92
2018-12-21T07:15:12.020Z,100830.57
2018-12-21T07:18:39.925Z,100827.04
2018-12-21T07:22:07.817Z,100818.05
2018-12-21T07:25:35.701Z,100820.78
2018-12-21T07:29:03.564Z,100821.57
2018-12-21T07:32:31.444Z,100816.29
2018-12-21T07:36:07.961Z,100811.96
2018-12-21T07:39:33.134Z,100811.81
2018-12-21T07:43:01.014Z,100812.26
2018-12-21T07:46:28.959Z,100812.85
2018-12-21T07:49:56.829Z,100809.61
2018-12-21T07:53:24.716Z,100806.25
2018-12-21T07:56:55.589Z,100803.98
2018-12-21T08:00:23.466Z,100801.71
2018-12-21T08:03:51.335Z,100793.65
2018-12-21T08:07:19.217Z,100801.71
2018-12-21T08:10:47.110Z,100799.06
2018-12-21T08:14:14.975Z,100785.35
2018-12-21T08:17:42.863Z,100783.03
2018-12-21T08:21:10.739Z,100777.95
2018-12-21T08:24:38.607Z,100773.21
2018-12-21T08:28:06.493Z,100777.93
2018-12-21T08:31:34.390Z,100777.51
2018-12-21T08:35:02.297Z,100775.21
2018-12-21T08:38:30.158Z,100773.55
2018-12-21T08:41:58.050Z,100771.21
2018-12-21T08:45:26.166Z,100764.48
2018-12-21T08:48:55.037Z,100757.75
2018-12-21T08:52:22.936Z,100755.59
2018-12-21T08:55:50.901Z,100759.88
2018-12-21T08:59:18.770Z,100756.82
2018-12-21T09:02:46.659Z,100755.79
2018-12-21T09:06:18.516Z,100751.71
2018-12-21T09:09:45.389Z,100746.59
2018-12-21T09:13:13.276Z,100742.25
2018-12-21T09:16:41.155Z,100738.62
2018-12-21T09:20:09.065Z,100733.18
2018-12-21T09:23:37.954Z,100732.45
2018-12-21T09:27:06.086Z,100721.34
2018-12-21T09:30:33.993Z,100724.42
2018-12-21T09:34:01.889Z,100718.84
2018-12-21T09:37:29.789Z,100716.42
2018-12-21T09:40:57.656Z,100712.6
2018-12-21T09:44:25.545Z,100704.63
2018-12-21T09:47:53.454Z,100700.93
2018-12-21T09:51:21.374Z,100692.78
2018-12-21T09:54:49.243Z,100687.11
2018-12-21T09:58:17.120Z,100682.07
2018-12-21T10:01:45.006Z,100669.23
2018-12-21T10:05:14.481Z,100648.17
2018-12-21T10:08:41.744Z,100642.16
2018-12-21T10:12:09.631Z,100633.25
2018-12-21T10:15:37.504Z,100630.59
2018-12-21T10:19:05.391Z,100617.64
2018-12-21T10:22:33.270Z,100614.92
2018-12-21T10:26:01.138Z,100611.57
2018-12-21T10:29:29.019Z,100605.04
2018-12-21T10:32:56.903Z,100597.29
2018-12-21T10:36:24.769Z,100586.82
2018-12-21T10:39:52.652Z,100574.23
2018-12-21T10:43:20.540Z,100562
2018-12-21T10:46:48.408Z,100559.56
2018-12-21T10:50:17.282Z,100547.65
2018-12-21T10:53:47.150Z,100542.02
2018-12-21T10:57:15.014Z,100542.04
2018-12-21T11:00:42.895Z,100534.31
2018-12-21T11:04:10.798Z,100522.59
2018-12-21T11:07:38.786Z,100510.5
2018-12-21T11:11:06.668Z,100506.11
2018-12-21T11:14:35.586Z,100501.07
2018-12-21T11:18:03.474Z,100497.89
2018-12-21T11:21:31.353Z,100491.84
2018-12-21T11:24:59.251Z,100483.9
2018-12-21T11:28:27.130Z,100481.82
2018-12-21T11:31:55.007Z,100462.13
2018-12-21T11:35:23.369Z,100456.79
2018-12-21T11:38:51.641Z,100449.06
2018-12-21T11:42:19.905Z,100436.25
2018-12-21T11:45:48.107Z,100429.79
2018-12-21T11:49:16.452Z,100422.83
2018-12-21T11:52:44.723Z,100422.54
2018-12-21T11:56:12.984Z,100410.32
2018-12-21T11:59:44.937Z,100400.7
2018-12-21T12:03:12.924Z,100397.78
2018-12-21T12:06:41.783Z,100394.89
2018-12-21T12:10:09.674Z,100386.79
2018-12-21T12:13:37.561Z,100374.84
2018-12-21T12:17:05.440Z,100372.01
2018-12-21T12:20:33.341Z,100364.18
2018-12-21T12:24:01.227Z,100361.48
2018-12-21T12:27:29.116Z,100353.89
2018-12-21T12:30:57.044Z,100353.35
2018-12-21T12:34:24.875Z,100341.12
2018-12-21T12:37:52.848Z,100334.53
2018-12-21T12:41:20.711Z,100329.43
2018-12-21T12:44:50.276Z,100317.85
2018-12-21T12:48:18.165Z,100313.03
2018-12-21T12:51:46.099Z,100315.97
2018-12-21T12:55:13.971Z,100301.2
2018-12-21T12:58:42.839Z,100296.31
2018-12-21T13:02:10.722Z,100282.35
2018-12-21T13:05:38.596Z,100280.12
2018-12-21T13:09:06.658Z,100267.58
2018-12-21T13:12:34.535Z,100258.26
2018-12-21T13:16:02.510Z,100255.14
2018-12-21T13:19:30.396Z,100248.53
2018-12-21T13:22:58.352Z,100238.15
2018-12-21T13:26:26.751Z,100226.48
2018-12-21T13:29:55.046Z,100217.62
2018-12-21T13:33:24.399Z,100210.84
2018-12-21T13:36:52.789Z,100205.76
2018-12-21T13:40:21.109Z,100192.35
2018-12-21T13:43:49.506Z,100186.36
2018-12-21T13:47:18.692Z,100177.33
2018-12-21T13:50:47.117Z,100171.68
2018-12-21T13:54:15.395Z,100171.42
2018-12-21T13:57:43.762Z,100164.92
2018-12-21T14:01:12.100Z,100167.78
2018-12-21T14:04:40.380Z,100166.46
2018-12-21T14:08:08.767Z,100162.95
2018-12-21T14:11:37.167Z,100159.75
2018-12-21T14:15:05.513Z,100153.16
2018-12-21T14:18:33.887Z,100147.54
2018-12-21T14:22:02.273Z,100140.63
2018-12-21T14:25:31.597Z,100135.4
2018-12-21T14:29:01.045Z,100129.25
2018-12-21T14:32:29.377Z,100123.92
2018-12-21T14:35:57.762Z,100117.36
2018-12-21T14:39:26.228Z,100113.1
2018-12-21T14:42:54.591Z,100104.23
2018-12-21T14:46:22.975Z,100092.34
2018-12-21T14:49:51.198Z,100083.84
2018-12-21T14:53:19.089Z,100074.95
2018-12-21T14:56:46.956Z,100071.52
2018-12-21T15:00:14.850Z,100062.45
2018-12-21T15:03:44.075Z,100056.55
2018-12-21T15:07:11.614Z,100052.07
2018-12-21T15:10:39.545Z,100040.39
2018-12-21T15:14:07.423Z,100028.28
2018-12-21T15:17:35.307Z,100022.78
2018-12-21T15:21:03.173Z,100017.18
2018-12-21T15:24:32.046Z,100012.43
2018-12-21T15:27:59.929Z,100000.34
2018-12-21T15:31:27.798Z,99994.625
2018-12-21T15:34:55.687Z,100002.06
2018-12-21T15:38:23.568Z,99999.984
2018-12-21T15:41:51.435Z,99997.578
2018-12-21T15:45:19.310Z,99995.875
2018-12-21T15:48:47.207Z,99986.664
2018-12-21T15:52:15.088Z,99978.054
2018-12-21T15:55:42.956Z,99966.671
2018-12-21T15:59:12.812Z,99964.007
2018-12-21T16:02:40.703Z,99957.679
2018-12-21T16:06:08.565Z,99944.445
2018-12-21T16:09:36.457Z,99936.023
2018-12-21T16:13:04.340Z,99927.898
2018-12-21T16:16:32.227Z,99915.234
2018-12-21T16:20:00.283Z,99906.945
2018-12-21T16:23:27.999Z,99901.25
2018-12-21T16:26:55.887Z,99893.437
2018-12-21T16:30:23.751Z,99891.687
2018-12-21T16:33:51.635Z,99879.75
2018-12-21T16:37:19.519Z,99880.375
2018-12-21T16:40:48.384Z,99875.421
2018-12-21T16:44:16.265Z,99866.648
2018-12-21T16:47:44.244Z,99860.39
2018-12-21T16:51:12.127Z,99839.351
2018-12-21T16:54:40.051Z,99828.718
2018-12-21T16:58:07.945Z,99816.906
2018-12-21T17:01:35.827Z,99806.328
2018-12-21T17:05:03.712Z,99796.906
2018-12-21T17:08:31.601Z,99791.062
2018-12-21T17:11:59.486Z,99791.546
2018-12-21T17:15:28.364Z,99786.109
2018-12-21T17:18:56.250Z,99782.625
2018-12-21T17:22:24.134Z,99769.343
2018-12-21T17:25:53.023Z,99766.921
2018-12-21T17:29:20.888Z,99765.656
2018-12-21T17:32:48.786Z,99761.164
2018-12-21T17:36:17.660Z,99754.57
2018-12-21T17:39:45.533Z,99754.89
2018-12-21T17:43:13.414Z,99742.062
2018-12-21T17:46:41.298Z,99722.171
2018-12-21T17:50:09.230Z,99715.281
2018-12-21T17:53:37.096Z,99714.171
2018-12-21T17:57:04.975Z,99700.546
2018-12-21T18:00:32.858Z,99694.5
2018-12-21T18:04:00.747Z,99691.945
2018-12-21T18:07:28.627Z,99682.859
2018-12-21T18:10:57.971Z,99679.929
2018-12-21T18:14:27.017Z,99682.5
2018-12-21T18:17:54.903Z,99683.828
2018-12-21T18:21:26.255Z,99678.375
2018-12-21T18:24:57.386Z,99673.257
2018-12-21T18:28:23.991Z,99664.734
2018-12-21T18:31:51.892Z,99654.656
2018-12-21T18:35:20.750Z,99660.093
2018-12-21T18:38:48.638Z,99648.921
2018-12-21T18:42:16.516Z,99641.507
2018-12-21T18:45:44.380Z,99632.765
2018-12-21T18:49:12.284Z,99628.593
2018-12-21T18:52:40.168Z,99619.437
2018-12-21T18:56:08.177Z,99610.625
2018-12-21T18:59:36.048Z,99608.375
2018-12-21T19:03:03.932Z,99603.875
2018-12-21T19:06:31.823Z,99590.953
2018-12-21T19:09:59.774Z,99581.718
2018-12-21T19:13:28.652Z,99561.898
2018-12-21T19:16:56.642Z,99558.265
2018-12-21T19:20:24.755Z,99556.718
2018-12-21T19:23:52.965Z,99557.593
2018-12-21T19:27:20.996Z,99555.601
2018-12-21T19:30:48.877Z,99546.687
2018-12-21T19:34:17.816Z,99543.968
2018-12-21T19:37:45.707Z,99533.484
2018-12-21T19:41:13.601Z,99531.781
2018-12-21T19:44:41.470Z,99533.312
2018-12-21T19:48:10.019Z,99524.828
2018-12-21T19:51:38.559Z,99510.476
2018-12-21T19:55:06.425Z,99507
2018-12-21T19:58:34.311Z,99502.296
2018-12-21T20:02:02.209Z,99490.078
2018-12-21T20:05:30.078Z,99487.734
2018-12-21T20:08:57.965Z,99475.625
2018-12-21T20:12:25.852Z,99468.14
2018-12-21T20:15:53.735Z,99456.765
2018-12-21T20:19:21.615Z,99451.093
2018-12-21T20:22:49.481Z,99443.406
2018-12-21T20:26:17.402Z,99439.14
2018-12-21T20:29:45.275Z,99437.679
2018-12-21T20:33:13.155Z,99422.609
2018-12-21T20:36:41.039Z,99422.14
2018-12-21T20:40:08.907Z,99407.156
2018-12-21T20:43:36.790Z,99410.132
2018-12-21T20:47:04.672Z,99399.703
2018-12-21T20:50:32.542Z,99388.64
2018-12-21T20:54:00.455Z,99388.812
2018-12-21T20:57:28.343Z,99398.421
2018-12-21T21:00:56.215Z,99388.484
2018-12-21T21:04:24.101Z,99383.656
2018-12-21T21:07:51.986Z,99372.468
2018-12-21T21:11:24.432Z,99364.109
2018-12-21T21:14:51.709Z,99367.515
2018-12-21T21:18:19.596Z,99360.82
2018-12-21T21:21:48.459Z,99364.453
2018-12-21T21:25:16.343Z,99353.89
2018-12-21T21:28:44.244Z,99354.289
2018-12-21T21:32:12.103Z,99353.648
2018-12-21T21:35:39.984Z,99347.476
2018-12-21T21:39:07.868Z,99335.75
2018-12-21T21:42:35.774Z,99335.906
2018-12-21T21:46:03.651Z,99331.531
2018-12-21T21:49:31.540Z,99334.703
2018-12-21T21:52:59.549Z,99335.046
2018-12-21T21:56:27.438Z,99332.968
2018-12-21T21:59:55.319Z,99331.031
2018-12-21T22:03:24.308Z,99322.609
2018-12-21T22:06:52.225Z,99324.75
2018-12-21T22:10:20.336Z,99321.023
2018-12-21T22:13:49.079Z,99317.179
2018-12-21T22:17:16.955Z,99311.07
2018-12-21T22:20:44.868Z,99308.351
2018-12-21T22:24:13.750Z,99310.64
2018-12-21T22:27:47.849Z,99302.125
2018-12-21T22:31:15.135Z,99297.578
2018-12-21T22:34:43.032Z,99291.789
2018-12-21T22:38:11.905Z,99290.671
2018-12-21T22:41:39.783Z,99285.468
2018-12-21T22:45:07.951Z,99281.812
2018-12-21T22:48:35.834Z,99279.015
2018-12-21T22:52:04.688Z,99281.015
2018-12-21T22:55:33.565Z,99285.156
2018-12-21T22:59:02.437Z,99278.375
2018-12-21T23:02:30.305Z,99276.593
2018-12-21T23:05:58.190Z,99271.687
2018-12-21T23:09:26.072Z,99265.742
2018-12-21T23:12:54.931Z,99261.578
2018-12-21T23:16:22.814Z,99262.515
2018-12-21T23:19:50.699Z,99253.398
2018-12-21T23:23:18.567Z,99252.367
2018-12-21T23:26:47.442Z,99250.921
2018-12-21T23:30:15.328Z,99250.906
2018-12-21T23:33:43.225Z,99250.812
2018-12-21T23:37:11.110Z,99244.89
2018-12-21T23:40:38.993Z,99247.718
2018-12-21T23:44:06.870Z,99244.265
2018-12-21T23:47:35.742Z,99248.156
2018-12-21T23:51:03.640Z,99242.796
2018-12-21T23:54:32.487Z,99240.945
2018-12-21T23:58:00.373Z,99242.304
